Time;durP1;ratioP1;P1;durP2;ratioP2;P2;SDS_P1;SDS_P2;PMS_P1;PMS_P2;Temp;Humidity;BMP_temperature;BMP_pressure;BME280_temperature;BME280_humidity;BME280_pressure;Samples;Min_cycle;Max_cycle;Signal;HPM_P1;HPM_P2
2022/08/28 00:00:18;;;;;;;4.15;3.35;;;10.20;99.90;;;;;;4936078;29;20565;-74
2022/08/28 00:02:45;;;;;;;5.20;4.05;;;10.20;99.90;;;;;;4935997;29;20059;-75
2022/08/28 00:05:12;;;;;;;5.35;3.72;;;10.10;99.90;;;;;;4936190;29;20523;-75
2022/08/28 00:07:39;;;;;;;5.72;4.10;;;10.10;99.90;;;;;;4921951;29;20055;-74
2022/08/28 00:10:07;;;;;;;6.15;4.30;;;10.10;99.90;;;;;;4928077;29;20055;-75
2022/08/28 00:12:35;;;;;;;4.30;3.67;;;10.00;99.90;;;;;;4929319;29;20039;-74
2022/08/28 00:15:01;;;;;;;6.57;4.07;;;10.10;99.90;;;;;;4940193;28;20039;-74
2022/08/28 00:17:27;;;;;;;4.55;3.50;;;10.00;99.90;;;;;;4919185;29;20090;-74
2022/08/28 00:19:53;;;;;;;5.38;3.80;;;10.00;99.90;;;;;;4931977;29;20118;-74
2022/08/28 00:22:18;;;;;;;4.45;4.05;;;10.00;99.90;;;;;;4913065;29;20038;-74
2022/08/28 00:24:44;;;;;;;3.90;3.50;;;10.00;99.90;;;;;;4911236;29;20046;-74
2022/08/28 00:29:54;;;;;;;5.10;3.92;;;9.90;99.90;;;;;;4937271;29;20099;-74
2022/08/28 00:32:22;;;;;;;4.95;4.28;;;9.90;99.90;;;;;;4920404;29;20135;-74
2022/08/28 00:34:48;;;;;;;5.80;4.18;;;9.90;99.90;;;;;;4904706;29;20400;-74
2022/08/28 00:37:14;;;;;;;5.55;4.03;;;9.90;99.90;;;;;;4935156;28;20062;-74
2022/08/28 00:39:40;;;;;;;6.07;4.40;;;9.90;99.90;;;;;;4912279;29;20044;-74
2022/08/28 00:42:09;;;;;;;5.32;3.97;;;9.90;99.90;;;;;;4915315;29;20451;-74
2022/08/28 00:44:35;;;;;;;5.25;4.13;;;9.80;99.90;;;;;;4923088;29;20547;-74
2022/08/28 00:47:01;;;;;;;5.38;4.53;;;9.80;99.90;;;;;;4954832;28;20043;-74
2022/08/28 00:49:32;;;;;;;4.60;4.10;;;9.80;99.90;;;;;;4914262;29;20043;-74
2022/08/28 00:52:07;;;;;;;6.90;4.90;;;9.80;99.90;;;;;;4926820;29;20040;-74
2022/08/28 00:55:00;;;;;;;5.43;4.68;;;9.70;99.90;;;;;;4919572;29;20042;-74
2022/08/28 00:57:35;;;;;;;5.00;4.30;;;9.80;99.90;;;;;;4926315;29;20062;-75
2022/08/28 01:00:03;;;;;;;5.90;4.57;;;9.70;99.90;;;;;;4935672;29;20152;-74
2022/08/28 01:02:30;;;;;;;5.63;4.65;;;9.70;99.90;;;;;;4901308;29;20063;-74
2022/08/28 01:04:56;;;;;;;4.85;4.25;;;9.70;99.90;;;;;;4919930;29;20106;-75
2022/08/28 01:07:22;;;;;;;6.13;4.32;;;9.70;99.90;;;;;;4919479;29;20047;-75
2022/08/28 01:09:52;;;;;;;5.35;4.72;;;9.70;99.90;;;;;;4910803;29;20051;-74
2022/08/28 01:12:22;;;;;;;5.40;4.45;;;9.70;99.90;;;;;;4927780;29;20081;-74
2022/08/28 01:14:51;;;;;;;5.30;4.30;;;9.70;99.90;;;;;;4921193;29;20107;-75
2022/08/28 01:17:19;;;;;;;4.70;4.00;;;9.70;99.90;;;;;;4941046;28;20493;-74
2022/08/28 01:19:56;;;;;;;5.22;4.25;;;9.70;99.90;;;;;;4923196;29;20064;-74
2022/08/28 01:22:45;;;;;;;5.13;3.95;;;9.60;99.90;;;;;;4918849;29;20468;-75
2022/08/28 01:25:17;;;;;;;5.93;4.75;;;9.70;99.90;;;;;;4921560;29;20090;-75
2022/08/28 01:27:43;;;;;;;6.63;4.83;;;9.60;99.90;;;;;;4927998;29;20043;-75
2022/08/28 01:30:12;;;;;;;5.38;4.60;;;9.60;99.90;;;;;;4931109;29;20101;-74
2022/08/28 01:32:46;;;;;;;5.88;4.97;;;9.50;99.90;;;;;;4936906;28;20115;-74
2022/08/28 01:35:19;;;;;;;5.40;4.78;;;9.50;99.90;;;;;;4918884;29;20087;-74
2022/08/28 01:37:46;;;;;;;6.15;4.72;;;9.50;99.90;;;;;;4934512;29;20040;-75
2022/08/28 01:40:16;;;;;;;6.68;5.00;;;9.50;99.90;;;;;;4908431;29;20044;-74
2022/08/28 01:42:43;;;;;;;5.30;4.80;;;9.50;99.90;;;;;;4912018;29;20048;-75
2022/08/28 01:45:13;;;;;;;5.47;4.50;;;9.50;99.90;;;;;;4928766;29;20058;-74
2022/08/28 01:47:42;;;;;;;6.57;4.40;;;9.50;99.90;;;;;;4926819;29;20046;-74
2022/08/28 01:50:10;;;;;;;5.50;4.65;;;9.40;99.90;;;;;;4917830;29;20040;-74
2022/08/28 01:52:35;;;;;;;5.88;4.72;;;9.40;99.90;;;;;;4926568;29;20543;-75
2022/08/28 01:55:03;;;;;;;5.47;4.82;;;9.40;99.90;;;;;;4902946;29;20050;-75
2022/08/28 01:57:28;;;;;;;6.25;4.72;;;9.40;99.90;;;;;;4941298;29;20428;-74
2022/08/28 01:59:54;;;;;;;7.03;5.05;;;9.30;99.90;;;;;;4908898;29;20031;-74
2022/08/28 02:02:21;;;;;;;6.28;4.80;;;9.30;99.90;;;;;;4919933;29;20062;-74
2022/08/28 02:04:49;;;;;;;6.10;4.85;;;9.40;99.90;;;;;;4902977;29;20046;-74
2022/08/28 02:07:15;;;;;;;5.53;4.43;;;9.30;99.90;;;;;;4918153;29;20050;-77
2022/08/28 02:09:41;;;;;;;6.82;4.68;;;9.30;99.90;;;;;;4925180;29;20035;-77
2022/08/28 02:12:08;;;;;;;6.15;4.97;;;9.30;99.90;;;;;;4924531;29;20091;-77
2022/08/28 02:14:33;;;;;;;4.88;4.40;;;9.20;99.90;;;;;;4920818;29;20044;-77
2022/08/28 02:16:59;;;;;;;5.57;4.85;;;9.20;99.90;;;;;;4921109;29;20534;-77
2022/08/28 02:19:29;;;;;;;6.15;4.38;;;9.30;99.90;;;;;;4928504;29;20039;-77
2022/08/28 02:21:54;;;;;;;5.25;4.75;;;9.20;99.90;;;;;;4929452;29;20047;-77
2022/08/28 02:24:21;;;;;;;5.22;4.55;;;9.20;99.90;;;;;;4937354;29;20058;-77
2022/08/28 02:26:46;;;;;;;7.10;4.70;;;9.20;99.90;;;;;;4906676;29;20040;-77
2022/08/28 02:29:12;;;;;;;7.53;5.28;;;9.20;99.90;;;;;;4926606;29;20045;-75
2022/08/28 02:31:38;;;;;;;5.70;4.88;;;9.10;99.90;;;;;;4913494;29;20070;-75
2022/08/28 02:34:04;;;;;;;5.72;5.18;;;9.10;99.90;;;;;;4921258;29;20039;-75
2022/08/28 02:36:32;;;;;;;5.53;4.65;;;9.10;99.90;;;;;;4932933;29;20049;-75
2022/08/28 02:38:58;;;;;;;4.72;4.20;;;9.10;99.90;;;;;;4925961;29;20043;-75
2022/08/28 02:41:25;;;;;;;5.60;4.80;;;9.10;99.90;;;;;;4904160;29;20074;-75
2022/08/28 02:43:51;;;;;;;6.35;4.32;;;9.20;99.90;;;;;;4917310;29;20131;-75
2022/08/28 02:46:17;;;;;;;5.95;5.07;;;9.10;99.90;;;;;;4944183;28;20059;-76
2022/08/28 02:48:43;;;;;;;5.70;5.10;;;9.10;99.90;;;;;;4926761;29;20047;-75
2022/08/28 02:51:12;;;;;;;5.93;5.15;;;9.10;99.90;;;;;;4915492;29;20083;-75
2022/08/28 02:53:41;;;;;;;5.38;4.63;;;9.10;99.90;;;;;;4902010;29;20051;-75
2022/08/28 02:56:08;;;;;;;6.05;4.88;;;9.10;99.90;;;;;;4916759;29;20050;-75
2022/08/28 02:58:34;;;;;;;5.47;4.90;;;9.20;99.90;;;;;;4932536;29;20487;-75
2022/08/28 03:01:05;;;;;;;5.53;4.65;;;9.10;99.90;;;;;;4927737;29;20074;-75
2022/08/28 03:03:34;;;;;;;6.15;4.78;;;9.10;99.90;;;;;;4945805;29;20039;-75
2022/08/28 03:06:01;;;;;;;5.30;4.65;;;9.10;99.90;;;;;;4936720;28;20130;-75
2022/08/28 03:08:28;;;;;;;4.82;4.32;;;9.10;99.90;;;;;;4932357;29;20102;-75
2022/08/28 03:10:54;;;;;;;5.38;4.60;;;9.10;99.90;;;;;;4912770;29;20389;-75
2022/08/28 03:13:20;;;;;;;4.53;4.13;;;9.00;99.90;;;;;;4924413;29;20043;-75
2022/08/28 03:15:46;;;;;;;5.28;4.40;;;9.00;99.90;;;;;;4928614;29;20070;-75
2022/08/28 03:18:13;;;;;;;6.82;4.38;;;9.00;99.90;;;;;;4920234;29;20071;-75
2022/08/28 03:20:40;;;;;;;5.40;4.57;;;9.00;99.90;;;;;;4926525;29;20103;-75
2022/08/28 03:23:25;;;;;;;5.55;4.78;;;9.00;99.90;;;;;;4935154;29;20047;-75
2022/08/28 03:25:54;;;;;;;5.00;3.97;;;9.00;99.90;;;;;;4901375;29;20043;-75
2022/08/28 03:28:19;;;;;;;4.78;4.28;;;9.00;99.90;;;;;;4921086;29;20337;-75
2022/08/28 03:30:46;;;;;;;6.70;4.95;;;9.00;99.90;;;;;;4940007;29;20056;-75
2022/08/28 03:33:12;;;;;;;6.45;5.15;;;9.00;99.90;;;;;;4947838;29;20047;-75
2022/08/28 03:35:37;;;;;;;5.78;5.10;;;8.90;99.90;;;;;;4936177;29;20046;-74
2022/08/28 03:38:04;;;;;;;5.70;4.53;;;8.90;99.90;;;;;;4910227;29;20417;-75
2022/08/28 03:40:31;;;;;;;6.75;4.70;;;9.00;99.90;;;;;;4922655;29;20504;-75
2022/08/28 03:42:57;;;;;;;5.85;4.57;;;9.00;99.90;;;;;;4911410;29;20038;-75
2022/08/28 03:45:25;;;;;;;5.03;4.53;;;8.90;99.90;;;;;;4928074;29;20043;-75
2022/08/28 03:47:51;;;;;;;5.50;4.80;;;8.90;99.90;;;;;;4914710;29;20039;-75
2022/08/28 03:50:21;;;;;;;5.45;4.75;;;8.90;99.90;;;;;;4922950;29;20408;-75
2022/08/28 03:52:50;;;;;;;5.03;4.50;;;8.90;99.90;;;;;;4940281;29;20039;-74
2022/08/28 03:55:17;;;;;;;7.22;4.80;;;8.90;99.90;;;;;;4938571;29;20138;-75
2022/08/28 03:57:44;;;;;;;6.18;4.57;;;8.90;99.90;;;;;;4924979;29;20583;-75
2022/08/28 04:00:12;;;;;;;5.88;5.10;;;8.80;99.90;;;;;;4925240;29;20126;-75
2022/08/28 04:02:42;;;;;;;5.85;5.07;;;8.80;99.90;;;;;;4931627;29;20053;-75
2022/08/28 04:05:11;;;;;;;5.78;4.80;;;8.90;99.90;;;;;;4940199;29;20106;-75
2022/08/28 04:07:38;;;;;;;5.78;4.97;;;8.80;99.90;;;;;;4922631;29;20104;-75
2022/08/28 04:10:05;;;;;;;7.18;4.57;;;8.80;99.90;;;;;;4926211;29;20047;-74
2022/08/28 04:12:31;;;;;;;5.57;4.28;;;8.80;99.90;;;;;;4945449;29;20039;-75
2022/08/28 04:14:57;;;;;;;5.20;4.63;;;8.80;99.90;;;;;;4916202;29;20539;-76
2022/08/28 04:17:25;;;;;;;6.30;4.95;;;8.80;99.90;;;;;;4923567;29;20126;-75
2022/08/28 04:19:52;;;;;;;5.53;4.93;;;8.80;99.90;;;;;;4932294;29;20027;-76
2022/08/28 04:22:18;;;;;;;5.53;4.55;;;8.80;99.90;;;;;;4924371;29;20044;-75
2022/08/28 04:24:50;;;;;;;5.22;4.40;;;8.80;99.90;;;;;;4919613;29;20050;-75
2022/08/28 04:27:18;;;;;;;6.43;4.55;;;8.70;99.90;;;;;;4912119;29;20127;-75
2022/08/28 04:29:46;;;;;;;5.32;4.75;;;8.70;99.90;;;;;;4930581;29;20475;-75
2022/08/28 04:32:13;;;;;;;4.80;3.90;;;8.80;99.90;;;;;;4915637;29;20039;-75
2022/08/28 04:34:41;;;;;;;4.97;4.28;;;8.70;99.90;;;;;;4930220;29;20054;-74
2022/08/28 04:37:07;;;;;;;4.90;4.38;;;8.70;99.90;;;;;;4921712;29;20036;-75
2022/08/28 04:39:33;;;;;;;4.38;3.90;;;8.70;99.90;;;;;;4906156;29;20115;-75
2022/08/28 04:41:59;;;;;;;5.00;4.07;;;8.70;99.90;;;;;;4926740;29;20126;-75
2022/08/28 04:44:31;;;;;;;4.75;4.00;;;8.70;99.90;;;;;;4910868;29;20046;-75
2022/08/28 04:46:56;;;;;;;4.63;4.00;;;8.60;99.90;;;;;;4927115;29;20102;-75
2022/08/28 04:49:22;;;;;;;4.22;3.70;;;8.60;99.90;;;;;;4928991;29;20079;-75
2022/08/28 04:51:48;;;;;;;4.70;4.13;;;8.60;99.90;;;;;;4933237;29;20035;-76
2022/08/28 04:54:14;;;;;;;3.92;3.53;;;8.70;99.90;;;;;;4924383;29;20066;-75
2022/08/28 04:56:40;;;;;;;5.10;4.10;;;8.60;99.90;;;;;;4914931;29;20089;-74
2022/08/28 04:59:07;;;;;;;4.10;3.70;;;8.60;99.90;;;;;;4919342;29;20488;-74
2022/08/28 05:01:33;;;;;;;6.22;4.50;;;8.60;99.90;;;;;;4929632;29;20044;-75
2022/08/28 05:04:03;;;;;;;4.28;3.63;;;8.60;99.90;;;;;;4938198;29;20084;-75
2022/08/28 05:06:33;;;;;;;4.53;3.70;;;8.60;99.90;;;;;;4938489;29;20126;-75
2022/08/28 05:09:01;;;;;;;5.13;4.03;;;8.60;99.90;;;;;;4932216;29;20062;-75
2022/08/28 05:11:30;;;;;;;5.20;4.45;;;8.60;99.90;;;;;;4942187;29;20047;-75
2022/08/28 05:13:56;;;;;;;6.50;4.57;;;8.60;99.90;;;;;;4919535;29;20036;-74
2022/08/28 05:16:22;;;;;;;5.72;4.88;;;8.70;99.90;;;;;;4900529;29;20044;-75
2022/08/28 05:18:49;;;;;;;6.78;4.93;;;8.70;99.90;;;;;;4917194;29;20039;-75
2022/08/28 05:21:21;;;;;;;6.38;5.15;;;8.70;99.90;;;;;;4923886;29;20492;-74
2022/08/28 05:23:55;;;;;;;6.55;5.60;;;8.80;99.90;;;;;;4899419;29;20054;-76
2022/08/28 05:26:22;;;;;;;7.57;5.95;;;8.80;99.90;;;;;;4941062;28;20141;-77
2022/08/28 05:28:54;;;;;;;7.63;6.10;;;8.90;99.90;;;;;;4931247;29;20035;-75
2022/08/28 05:31:25;;;;;;;9.43;6.95;;;8.90;99.90;;;;;;4919268;29;20039;-74
2022/08/28 05:33:53;;;;;;;8.98;7.13;;;8.90;99.90;;;;;;4929873;29;20087;-74
2022/08/28 05:36:24;;;;;;;10.50;8.63;;;9.10;99.90;;;;;;4942426;28;20036;-76
2022/08/28 05:38:56;;;;;;;10.98;8.57;;;9.10;99.90;;;;;;4930406;29;20039;-76
2022/08/28 05:41:27;;;;;;;11.07;8.75;;;9.10;99.90;;;;;;4922629;29;20052;-76
2022/08/28 05:43:53;;;;;;;15.50;10.35;;;9.20;99.90;;;;;;4918744;29;20102;-76
2022/08/28 05:46:22;;;;;;;12.63;9.93;;;9.30;99.90;;;;;;4902736;29;20470;-75
2022/08/28 05:48:48;;;;;;;13.10;9.88;;;9.30;99.90;;;;;;4917165;29;20040;-76
2022/08/28 05:51:22;;;;;;;15.18;10.55;;;9.60;99.90;;;;;;4918203;29;20046;-77
2022/08/28 05:53:54;;;;;;;18.08;11.88;;;9.60;99.90;;;;;;4918581;29;20039;-76
2022/08/28 05:56:24;;;;;;;15.05;10.73;;;9.70;99.90;;;;;;4901948;29;20039;-76
2022/08/28 05:59:01;;;;;;;15.82;10.35;;;9.80;99.90;;;;;;4908760;29;20142;-76
2022/08/28 06:01:38;;;;;;;14.35;10.35;;;9.90;99.90;;;;;;4925808;29;20480;-76
2022/08/28 06:04:07;;;;;;;15.10;11.38;;;10.00;99.90;;;;;;4901685;29;20036;-77
2022/08/28 06:06:43;;;;;;;15.43;10.88;;;10.20;99.90;;;;;;4902152;29;20090;-78
2022/08/28 06:09:28;;;;;;;14.35;10.43;;;10.30;99.90;;;;;;4918911;29;20055;-78
2022/08/28 06:11:57;;;;;;;13.07;10.05;;;10.40;99.90;;;;;;4913883;29;20484;-77
2022/08/28 06:14:24;;;;;;;12.68;9.75;;;10.60;99.90;;;;;;4920188;29;20098;-75
2022/08/28 06:16:54;;;;;;;15.95;9.90;;;10.70;99.90;;;;;;4923392;29;20047;-75
2022/08/28 06:19:23;;;;;;;13.68;10.18;;;10.90;99.90;;;;;;4951983;23;20078;-80
2022/08/28 06:21:52;;;;;;;14.95;9.55;;;10.90;99.90;;;;;;4958860;28;20034;-80
2022/08/28 06:24:18;;;;;;;13.40;10.00;;;11.00;99.90;;;;;;4975218;28;20038;-80
2022/08/28 06:26:44;;;;;;;13.43;9.35;;;11.20;99.90;;;;;;4959182;28;20040;-80
2022/08/28 06:29:12;;;;;;;11.48;8.77;;;11.20;99.90;;;;;;4959316;28;20521;-80
2022/08/28 06:31:38;;;;;;;13.27;8.55;;;11.30;99.90;;;;;;4959470;28;20049;-80
2022/08/28 06:34:05;;;;;;;14.48;9.40;;;11.40;99.90;;;;;;4959643;28;20073;-79
2022/08/28 06:36:33;;;;;;;13.25;8.60;;;11.50;99.90;;;;;;4974908;28;20101;-80
2022/08/28 06:39:00;;;;;;;10.65;7.45;;;11.60;99.90;;;;;;4959320;28;20125;-80
2022/08/28 06:41:27;;;;;;;12.50;7.35;;;11.80;99.90;;;;;;4974699;28;20057;-79
2022/08/28 06:43:53;;;;;;;11.07;7.15;;;11.90;99.90;;;;;;4959406;28;20121;-80
2022/08/28 06:46:18;;;;;;;7.90;6.40;;;12.00;99.90;;;;;;4974688;28;20058;-80
2022/08/28 06:48:44;;;;;;;9.23;6.38;;;12.20;99.90;;;;;;4975086;28;20047;-80
2022/08/28 06:51:11;;;;;;;7.15;5.18;;;12.30;99.90;;;;;;4958635;28;20054;-79
2022/08/28 06:53:38;;;;;;;8.93;5.47;;;12.40;99.90;;;;;;4959465;28;20065;-80
2022/08/28 06:56:18;;;;;;;7.53;5.45;;;12.40;99.90;;;;;;4958349;28;20475;-79
2022/08/28 06:58:45;;;;;;;7.88;5.30;;;12.60;99.90;;;;;;4974300;28;20049;-79
2022/08/28 07:01:24;;;;;;;6.75;4.53;;;12.70;99.90;;;;;;4959484;28;20053;-79
2022/08/28 07:03:52;;;;;;;5.78;4.20;;;12.80;99.90;;;;;;4959516;28;20382;-80
2022/08/28 07:06:34;;;;;;;5.90;3.70;;;12.80;99.90;;;;;;5082279;28;20410;-77
2022/08/28 07:09:01;;;;;;;6.53;3.35;;;13.00;99.90;;;;;;5065077;28;20048;-77
2022/08/28 07:11:30;;;;;;;6.13;3.58;;;13.10;99.90;;;;;;5067823;28;20460;-77
2022/08/28 07:13:56;;;;;;;5.82;3.53;;;13.20;99.90;;;;;;5067800;28;20045;-77
2022/08/28 07:16:25;;;;;;;5.22;3.10;;;13.40;99.90;;;;;;5067763;28;20479;-77
2022/08/28 07:18:54;;;;;;;5.10;3.03;;;13.50;99.90;;;;;;5086456;22;20049;-75
2022/08/28 07:21:20;;;;;;;3.92;2.38;;;13.60;99.90;;;;;;5051137;28;20115;-76
2022/08/28 07:23:47;;;;;;;5.72;2.25;;;13.70;99.90;;;;;;5050930;28;20037;-76
2022/08/28 07:26:22;;;;;;;3.88;1.98;;;13.80;99.90;;;;;;5051310;28;20560;-75
2022/08/28 07:28:48;;;;;;;3.28;1.83;;;13.90;99.90;;;;;;5036323;28;20108;-75
2022/08/28 07:31:26;;;;;;;3.80;1.95;;;14.10;99.90;;;;;;5025996;28;20044;-76
2022/08/28 07:33:53;;;;;;;4.78;1.83;;;14.20;99.90;;;;;;5031106;28;20033;-77
2022/08/28 07:36:26;;;;;;;2.88;1.52;;;14.30;99.90;;;;;;5029894;28;20443;-76
2022/08/28 07:38:54;;;;;;;1.77;1.20;;;14.40;99.90;;;;;;5019291;28;20038;-75
2022/08/28 07:41:26;;;;;;;2.95;1.60;;;14.60;99.90;;;;;;5022428;28;20037;-75
2022/08/28 07:46:38;;;;;;;4.30;1.90;;;14.90;99.90;;;;;;5047329;28;20139;-76
2022/08/28 07:49:06;;;;;;;2.22;1.13;;;15.10;99.90;;;;;;5030734;28;20049;-75
2022/08/28 07:51:32;;;;;;;2.35;1.30;;;15.20;99.90;;;;;;5024339;28;20380;-75
2022/08/28 07:53:58;;;;;;;2.28;0.90;;;15.30;99.90;;;;;;5019450;28;20037;-75
2022/08/28 07:56:28;;;;;;;2.65;1.15;;;15.40;99.90;;;;;;5022315;28;20407;-76
2022/08/28 07:58:58;;;;;;;2.40;1.17;;;15.60;99.90;;;;;;5010429;28;20037;-75
2022/08/28 08:01:27;;;;;;;2.10;1.10;;;15.70;99.90;;;;;;5016504;28;20034;-75
2022/08/28 08:03:53;;;;;;;2.47;1.10;;;15.80;99.90;;;;;;5029960;28;20041;-76
2022/08/28 08:06:20;;;;;;;1.48;0.98;;;15.90;99.90;;;;;;5029824;28;20570;-76
2022/08/28 08:08:47;;;;;;;3.30;1.10;;;16.00;99.90;;;;;;5029882;28;20072;-76
2022/08/28 08:11:17;;;;;;;1.20;0.75;;;16.10;99.90;;;;;;5032701;28;20521;-76
2022/08/28 08:13:46;;;;;;;1.40;1.00;;;16.20;99.90;;;;;;5028962;28;20041;-76
2022/08/28 08:16:16;;;;;;;2.45;0.85;;;16.40;99.90;;;;;;5024729;28;20079;-76
2022/08/28 08:18:43;;;;;;;3.38;1.00;;;16.50;99.90;;;;;;5007331;28;20041;-76
2022/08/28 08:21:12;;;;;;;1.65;0.80;;;16.80;99.90;;;;;;5017249;28;20106;-75
2022/08/28 08:23:39;;;;;;;3.13;1.10;;;16.90;99.90;;;;;;5016738;28;20041;-76
2022/08/28 08:26:07;;;;;;;2.63;0.98;;;17.10;99.90;;;;;;5016645;28;20042;-76
2022/08/28 08:28:36;;;;;;;2.00;0.90;;;17.30;99.90;;;;;;5014550;28;20537;-76
2022/08/28 08:31:18;;;;;;;2.95;1.08;;;17.50;99.90;;;;;;5009766;28;20113;-77
2022/08/28 08:33:48;;;;;;;2.83;1.10;;;17.90;99.90;;;;;;5016636;28;20057;-75
2022/08/28 08:36:17;;;;;;;2.95;0.93;;;18.40;99.90;;;;;;5016631;28;20049;-76
2022/08/28 08:38:44;;;;;;;2.08;0.88;;;19.10;99.90;;;;;;5013496;28;20751;-76
2022/08/28 08:41:22;;;;;;;2.75;1.02;;;19.50;99.90;;;;;;5010286;28;20109;-77
2022/08/28 08:44:15;;;;;;;2.17;0.80;;;20.10;99.90;;;;;;5016422;28;20038;-76
2022/08/28 08:46:48;;;;;;;1.25;0.70;;;20.10;99.90;;;;;;5016099;28;20041;-76
2022/08/28 08:49:18;;;;;;;2.25;0.90;;;20.40;99.90;;;;;;5016178;28;20052;-76
2022/08/28 08:52:13;;;;;;;3.47;0.90;;;20.90;99.90;;;;;;5015284;28;20076;-76
2022/08/28 08:54:41;;;;;;;3.17;0.90;;;21.60;90.60;;;;;;5003429;28;20464;-76
2022/08/28 08:57:11;;;;;;;3.47;0.80;;;21.90;99.90;;;;;;5015512;28;20446;-76
2022/08/28 08:59:43;;;;;;;1.25;0.77;;;22.30;98.80;;;;;;5007841;28;20447;-77
2022/08/28 09:02:18;;;;;;;2.45;0.80;;;22.50;97.60;;;;;;5016138;28;20403;-77
2022/08/28 09:04:52;;;;;;;2.33;0.80;;;22.90;92.30;;;;;;5012592;28;20048;-76
2022/08/28 09:07:36;;;;;;;2.60;1.15;;;22.80;92.80;;;;;;5003759;28;20045;-76
2022/08/28 09:10:11;;;;;;;1.48;0.70;;;22.20;80.80;;;;;;5009414;28;20048;-76
2022/08/28 09:13:15;;;;;;;1.03;0.80;;;21.80;87.90;;;;;;5006810;28;20205;-76
2022/08/28 09:15:45;;;;;;;2.50;0.65;;;21.50;84.30;;;;;;5009893;28;20395;-77
2022/08/28 09:18:13;;;;;;;1.65;0.75;;;21.90;84.80;;;;;;5009450;28;20446;-76
2022/08/28 09:20:40;;;;;;;2.25;0.90;;;22.20;85.00;;;;;;5015544;28;20041;-77
2022/08/28 09:23:10;;;;;;;1.17;0.70;;;22.40;82.40;;;;;;5015584;28;20099;-76
2022/08/28 09:26:13;;;;;;;2.08;0.80;;;22.90;82.10;;;;;;5006571;28;20046;-76
2022/08/28 09:28:40;;;;;;;1.98;0.60;;;23.40;74.50;;;;;;5003760;28;20038;-75
2022/08/28 09:31:12;;;;;;;2.30;1.13;;;23.90;79.50;;;;;;5015852;28;20037;-75
2022/08/28 09:33:48;;;;;;;1.38;0.68;;;24.10;79.90;;;;;;5006432;28;20042;-76
2022/08/28 09:36:34;;;;;;;1.60;0.63;;;24.00;77.40;;;;;;5015684;28;20068;-76
2022/08/28 09:39:16;;;;;;;2.25;0.82;;;24.00;67.70;;;;;;5010084;28;20084;-76
2022/08/28 09:44:51;;;;;;;2.60;0.77;;;23.20;73.20;;;;;;5014662;28;20049;-76
2022/08/28 09:47:35;;;;;;;;;;;23.10;73.10;;;;;;5015605;28;20045;-76
2022/08/28 09:50:32;;;;;;;1.20;0.75;;;22.80;71.50;;;;;;5006469;28;19917;-75
2022/08/28 09:53:10;;;;;;;2.35;0.70;;;22.30;75.30;;;;;;4984094;28;20408;-77
2022/08/28 09:56:06;;;;;;;1.52;0.90;;;22.60;75.30;;;;;;4995455;28;20058;-75
2022/08/28 09:58:38;;;;;;;1.60;0.60;;;23.30;76.20;;;;;;4995256;28;20042;-76
2022/08/28 10:01:40;;;;;;;1.80;0.83;;;24.00;74.70;;;;;;4999916;28;20523;-76
2022/08/28 10:05:02;;;;;;;2.72;0.70;;;24.30;71.40;;;;;;5008634;28;20484;-75
2022/08/28 10:07:57;;;;;;;1.92;1.30;;;24.40;72.20;;;;;;4957577;28;20050;-76
2022/08/28 10:10:35;;;;;;;1.52;0.80;;;23.70;69.60;;;;;;5014906;28;20048;-76
2022/08/28 10:13:22;;;;;;;0.73;0.60;;;23.00;71.60;;;;;;5005745;28;20068;-75
2022/08/28 10:16:19;;;;;;;1.38;0.63;;;22.40;70.60;;;;;;5014213;28;20051;-76
2022/08/28 10:19:01;;;;;;;1.55;0.80;;;22.40;72.70;;;;;;5030645;28;20037;-76
2022/08/28 10:21:43;;;;;;;1.40;0.80;;;22.90;72.90;;;;;;5015305;28;20041;-75
2022/08/28 10:24:33;;;;;;;2.85;0.88;;;23.40;72.80;;;;;;5014734;28;20340;-76
2022/08/28 10:27:26;;;;;;;3.95;0.93;;;23.90;72.60;;;;;;5005129;28;20044;-76
2022/08/28 10:29:52;;;;;;;2.63;1.27;;;24.60;71.10;;;;;;5009492;28;20044;-76
2022/08/28 10:32:38;;;;;;;1.67;0.77;;;25.00;65.20;;;;;;5014388;28;20045;-76
2022/08/28 10:35:20;;;;;;;2.45;0.88;;;24.70;67.30;;;;;;5014772;28;20064;-76
2022/08/28 10:38:10;;;;;;;2.15;0.93;;;24.40;64.80;;;;;;5030561;28;20113;-76
2022/08/28 10:40:44;;;;;;;1.90;0.73;;;23.90;64.80;;;;;;5005060;28;20380;-75
2022/08/28 10:43:21;;;;;;;1.00;0.85;;;23.50;68.20;;;;;;5005901;28;20499;-75
2022/08/28 10:45:53;;;;;;;2.13;0.98;;;23.00;69.50;;;;;;5014012;28;20129;-75
2022/08/28 10:48:45;;;;;;;1.23;0.70;;;22.70;71.00;;;;;;5014260;28;20127;-75
2022/08/28 10:51:40;;;;;;;2.05;1.00;;;22.50;70.30;;;;;;5005526;28;20048;-79
2022/08/28 10:54:39;;;;;;;1.33;0.93;;;22.20;67.50;;;;;;5005176;28;20504;-76
2022/08/28 10:57:34;;;;;;;1.73;0.80;;;21.90;71.60;;;;;;4994381;28;20443;-76
2022/08/28 11:00:14;;;;;;;1.60;0.85;;;22.10;73.80;;;;;;4994209;28;20038;-77
2022/08/28 11:02:44;;;;;;;1.80;0.90;;;22.80;69.70;;;;;;4994630;28;20499;-77
2022/08/28 11:05:12;;;;;;;3.03;1.38;;;23.20;69.60;;;;;;5005807;28;20502;-75
2022/08/28 11:07:46;;;;;;;1.52;0.70;;;23.20;70.80;;;;;;5013522;28;20076;-76
2022/08/28 11:10:33;;;;;;;2.17;0.70;;;23.00;69.80;;;;;;5013934;28;20053;-76
2022/08/28 11:13:05;;;;;;;1.77;0.95;;;22.70;67.90;;;;;;5014109;28;20079;-75
2022/08/28 11:15:31;;;;;;;1.50;0.73;;;22.40;70.00;;;;;;5013122;28;20140;-75
2022/08/28 11:18:14;;;;;;;1.60;0.82;;;22.30;70.40;;;;;;5017948;28;20536;-76
2022/08/28 11:21:27;;;;;;;2.10;0.93;;;22.00;70.00;;;;;;5013023;28;20088;-76
2022/08/28 11:24:28;;;;;;;1.55;0.70;;;21.90;68.10;;;;;;5013929;28;20601;-76
2022/08/28 11:27:20;;;;;;;1.80;0.90;;;22.40;70.20;;;;;;5013005;28;20527;-75
2022/08/28 11:29:56;;;;;;;1.45;1.02;;;23.20;70.70;;;;;;5005087;28;20049;-75
2022/08/28 11:32:33;;;;;;;2.08;0.80;;;24.00;67.70;;;;;;5013978;28;20099;-76
2022/08/28 11:35:09;;;;;;;2.15;0.73;;;24.00;67.20;;;;;;5013408;28;20041;-76
2022/08/28 11:37:49;;;;;;;2.25;1.00;;;23.80;67.40;;;;;;5013866;28;20041;-75
2022/08/28 11:40:47;;;;;;;2.10;0.93;;;23.50;65.30;;;;;;5013996;28;20387;-75
2022/08/28 11:43:16;;;;;;;1.38;0.80;;;23.20;67.30;;;;;;5026268;28;20119;-75
2022/08/28 11:45:45;;;;;;;3.95;1.10;;;23.10;67.30;;;;;;5002187;28;20049;-76
2022/08/28 11:48:36;;;;;;;2.72;0.75;;;23.20;68.30;;;;;;5013265;28;20037;-75
2022/08/28 11:51:49;;;;;;;2.22;0.80;;;23.90;68.50;;;;;;5013920;28;20395;-75
2022/08/28 11:54:24;;;;;;;1.00;0.60;;;24.80;63.90;;;;;;5001328;28;20052;-76
2022/08/28 11:56:52;;;;;;;1.85;0.88;;;25.30;62.80;;;;;;5016828;28;20087;-76
2022/08/28 11:59:38;;;;;;;1.27;0.75;;;25.10;61.90;;;;;;5016998;28;20041;-75
2022/08/28 12:02:38;;;;;;;1.52;0.60;;;24.70;61.10;;;;;;5017625;28;20304;-75
2022/08/28 12:05:30;;;;;;;1.77;0.70;;;24.30;61.80;;;;;;5008047;28;20046;-75
2022/08/28 12:08:01;;;;;;;1.70;0.80;;;23.80;61.20;;;;;;4991850;28;20050;-76
2022/08/28 12:10:28;;;;;;;1.92;0.63;;;23.50;64.20;;;;;;4997626;28;20045;-75
2022/08/28 12:12:57;;;;;;;2.33;0.65;;;23.30;64.20;;;;;;4997701;28;20103;-78
2022/08/28 12:15:29;;;;;;;1.25;0.70;;;23.80;64.80;;;;;;5017302;28;20037;-75
2022/08/28 12:17:57;;;;;;;;;;;24.40;62.30;;;;;;5004729;28;20037;-75
2022/08/28 12:20:48;;;;;;;1.42;0.77;;;24.60;60.40;;;;;;5012602;28;19921;-75
2022/08/28 12:23:22;;;;;;;;;;;24.90;63.20;;;;;;5017406;28;20056;-75
2022/08/28 12:25:57;;;;;;;1.70;0.70;;;25.50;60.90;;;;;;5016658;28;19921;-76
2022/08/28 12:28:30;;;;;;;2.08;0.80;;;26.20;62.50;;;;;;5016470;28;20037;-76
2022/08/28 12:31:05;;;;;;;1.60;0.85;;;26.70;58.80;;;;;;5014792;28;20029;-75
2022/08/28 12:33:37;;;;;;;1.08;0.80;;;27.00;58.50;;;;;;5024768;28;20120;-77
2022/08/28 12:36:09;;;;;;;1.55;0.73;;;27.00;56.80;;;;;;5025076;28;20034;-77
2022/08/28 12:38:38;;;;;;;2.20;0.80;;;27.10;55.70;;;;;;5007734;28;20067;-78
2022/08/28 12:41:15;;;;;;;1.30;0.65;;;26.90;54.70;;;;;;5016242;28;20045;-76
2022/08/28 12:43:47;;;;;;;2.50;0.70;;;26.60;55.90;;;;;;5016859;28;20095;-76
2022/08/28 12:46:19;;;;;;;2.38;1.00;;;25.90;56.60;;;;;;5007286;28;20044;-78
2022/08/28 12:48:53;;;;;;;2.33;1.00;;;25.00;57.90;;;;;;5012163;28;20038;-76
2022/08/28 12:51:26;;;;;;;1.40;0.80;;;24.30;58.60;;;;;;5010358;28;20499;-75
2022/08/28 12:53:58;;;;;;;1.90;0.88;;;23.60;61.10;;;;;;5005925;28;20030;-78
2022/08/28 12:56:28;;;;;;;2.65;0.90;;;23.50;61.60;;;;;;5007425;28;20049;-75
2022/08/28 12:58:55;;;;;;;2.63;0.93;;;24.00;61.30;;;;;;5012107;28;20037;-75
2022/08/28 13:01:28;;;;;;;2.30;1.10;;;24.20;59.70;;;;;;5032012;28;20411;-74
2022/08/28 13:04:16;;;;;;;2.38;0.90;;;24.60;61.00;;;;;;5014240;28;20388;-74
2022/08/28 13:06:42;;;;;;;2.97;0.88;;;25.10;59.40;;;;;;5011641;28;20053;-76
2022/08/28 13:09:24;;;;;;;2.25;0.75;;;25.50;58.90;;;;;;5005712;28;20069;-75
2022/08/28 13:11:50;;;;;;;2.55;0.90;;;25.10;56.70;;;;;;5014127;28;20056;-75
2022/08/28 13:14:39;;;;;;;1.27;0.80;;;24.10;56.00;;;;;;5013385;28;20076;-76
2022/08/28 13:17:06;;;;;;;1.73;0.88;;;23.70;59.20;;;;;;5025514;28;20045;-75
2022/08/28 13:19:33;;;;;;;1.85;0.80;;;23.80;60.10;;;;;;5057802;22;20037;-77
2022/08/28 13:22:03;;;;;;;2.30;0.80;;;24.10;59.70;;;;;;5071259;28;20033;-77
2022/08/28 13:24:44;;;;;;;1.05;0.63;;;24.60;59.90;;;;;;5068110;28;20074;-77